Time;durP1;ratioP1;P1;durP2;ratioP2;P2;SDS_P1;SDS_P2;PMS_P1;PMS_P2;Temp;Humidity;BMP_temperature;BMP_pressure;BME280_temperature;BME280_humidity;BME280_pressure;Samples;Min_cycle;Max_cycle;Signal;HPM_P1;HPM_P2
2023/01/22 00:01:16;;;;;;;86.07;34.08;;;;;;;1.77;100.00;100757.38;4841276;29;20504;-79
2023/01/22 00:03:42;;;;;;;81.05;32.38;;;;;;;1.73;100.00;100740.38;4845809;29;20037;-79
2023/01/22 00:06:08;;;;;;;89.05;35.78;;;;;;;1.72;100.00;100747.31;4827373;29;21347;-81
2023/01/22 00:08:34;;;;;;;86.95;34.05;;;;;;;1.70;100.00;100742.25;4841189;29;20034;-81
2023/01/22 00:11:00;;;;;;;92.88;36.83;;;;;;;1.62;100.00;100739.28;4842019;29;20111;-78
2023/01/22 00:13:26;;;;;;;86.90;34.97;;;;;;;1.73;100.00;100742.97;4843589;29;20029;-77
2023/01/22 00:15:52;;;;;;;96.40;37.60;;;;;;;1.82;100.00;100724.25;4826032;29;20045;-79
2023/01/22 00:18:18;;;;;;;98.00;39.97;;;;;;;1.70;100.00;100733.63;4834093;29;20038;-78
2023/01/22 00:20:47;;;;;;;99.05;40.10;;;;;;;1.66;100.00;100726.97;4841527;29;20034;-79
2023/01/22 00:23:13;;;;;;;96.45;39.85;;;;;;;1.84;100.00;100714.63;4829531;29;20450;-79
2023/01/22 00:25:40;;;;;;;102.93;39.83;;;;;;;1.76;100.00;100717.69;4840848;29;20455;-78
2023/01/22 00:28:06;;;;;;;107.70;38.67;;;;;;;1.77;100.00;100706.44;4842187;29;20030;-79
2023/01/22 00:30:32;;;;;;;98.78;39.88;;;;;;;1.75;100.00;100707.47;4847431;29;20075;-79
2023/01/22 00:32:58;;;;;;;95.85;40.22;;;;;;;1.78;100.00;100700.34;4848265;29;20073;-80
2023/01/22 00:35:23;;;;;;;97.32;38.50;;;;;;;1.76;100.00;100691.81;4849026;29;20102;-78
2023/01/22 00:37:49;;;;;;;113.78;41.00;;;;;;;2.04;100.00;100703.03;4850834;29;20057;-79
2023/01/22 00:40:16;;;;;;;102.43;38.55;;;;;;;1.98;100.00;100703.44;4847136;29;20059;-77
2023/01/22 00:42:42;;;;;;;97.18;39.03;;;;;;;1.92;100.00;100701.22;4837636;29;20068;-78
2023/01/22 00:45:08;;;;;;;101.95;39.17;;;;;;;1.82;100.00;100699.22;4847047;29;20496;-79
2023/01/22 00:47:37;;;;;;;107.78;40.88;;;;;;;1.87;100.00;100698.09;4831055;29;20449;-78
2023/01/22 00:50:02;;;;;;;101.28;40.72;;;;;;;1.80;100.00;100706.25;4851406;29;20038;-79
2023/01/22 00:52:28;;;;;;;100.22;38.47;;;;;;;1.70;100.00;100690.47;4850975;29;20030;-80
2023/01/22 00:54:54;;;;;;;86.15;37.55;;;;;;;1.75;100.00;100695.34;4851737;29;20094;-78
2023/01/22 00:57:20;;;;;;;107.43;41.35;;;;;;;1.83;100.00;100695.69;4850450;29;20557;-78
2023/01/22 00:59:47;;;;;;;100.40;39.35;;;;;;;1.80;100.00;100700.22;4853069;29;20050;-79
2023/01/22 01:02:13;;;;;;;104.10;39.25;;;;;;;1.84;100.00;100705.13;4852175;29;20041;-78
2023/01/22 01:04:39;;;;;;;117.55;43.17;;;;;;;1.91;100.00;100707.31;4847290;29;20034;-78
2023/01/22 01:07:04;;;;;;;106.50;41.67;;;;;;;1.95;100.00;100709.63;4846152;29;20124;-78
2023/01/22 01:09:30;;;;;;;99.15;39.67;;;;;;;1.83;100.00;100716.41;4849037;29;20034;-79
2023/01/22 01:11:56;;;;;;;103.00;40.40;;;;;;;1.79;100.00;100707.19;4853420;29;20037;-79
2023/01/22 01:14:22;;;;;;;99.28;40.45;;;;;;;1.76;100.00;100704.75;4853171;29;20239;-77
2023/01/22 01:16:49;;;;;;;144.48;50.63;;;;;;;1.84;100.00;100712.03;4850178;29;20034;-78
2023/01/22 01:19:16;;;;;;;113.85;43.22;;;;;;;1.93;100.00;100708.06;4850317;29;20037;-78
2023/01/22 01:21:42;;;;;;;98.40;39.22;;;;;;;2.00;100.00;100707.56;4836003;29;20037;-78
2023/01/22 01:24:09;;;;;;;95.30;37.67;;;;;;;1.65;100.00;100702.03;4847464;29;20134;-79
2023/01/22 01:26:35;;;;;;;106.88;39.33;;;;;;;1.87;100.00;100716.22;4852879;29;20045;-77
2023/01/22 01:29:03;;;;;;;105.78;39.67;;;;;;;1.83;100.00;100706.06;4849034;29;20033;-78
2023/01/22 01:31:29;;;;;;;98.93;38.67;;;;;;;1.80;100.00;100719.19;4847729;29;20162;-78
2023/01/22 01:33:55;;;;;;;96.47;39.05;;;;;;;1.78;100.00;100707.25;4846228;29;20066;-78
2023/01/22 01:36:23;;;;;;;96.95;37.30;;;;;;;1.67;100.00;100726.91;4844590;29;20122;-78
2023/01/22 01:38:50;;;;;;;95.88;39.28;;;;;;;1.51;100.00;100721.81;4846265;29;20477;-79
2023/01/22 01:41:19;;;;;;;101.85;37.17;;;;;;;1.62;100.00;100712.56;4851625;29;20445;-77
2023/01/22 01:43:46;;;;;;;98.60;37.35;;;;;;;1.75;100.00;100708.28;4837594;29;20045;-78
2023/01/22 01:46:23;;;;;;;105.18;37.70;;;;;;;1.64;100.00;100700.38;4853171;29;20467;-79
2023/01/22 01:48:54;;;;;;;92.55;37.47;;;;;;;1.69;100.00;100700.91;4849092;29;20074;-79
2023/01/22 01:51:28;;;;;;;106.85;37.92;;;;;;;1.46;100.00;100703.16;4837120;29;20185;-79
2023/01/22 01:53:55;;;;;;;109.50;37.80;;;;;;;1.64;100.00;100695.19;4847907;29;20034;-79
2023/01/22 01:56:27;;;;;;;101.20;37.08;;;;;;;1.73;100.00;100698.97;4850933;29;20061;-78
2023/01/22 01:59:01;;;;;;;100.28;37.40;;;;;;;1.63;100.00;100701.28;4849416;29;20053;-79
2023/01/22 02:01:28;;;;;;;102.75;37.88;;;;;;;1.69;100.00;100706.06;4850267;29;20602;-78
2023/01/22 02:03:54;;;;;;;96.10;36.03;;;;;;;1.62;100.00;100697.84;4848289;29;20046;-77
2023/01/22 02:06:20;;;;;;;87.35;33.72;;;;;;;1.73;100.00;100725.66;4847703;29;20053;-78
2023/01/22 02:08:47;;;;;;;103.55;37.75;;;;;;;1.83;100.00;100726.78;4850504;29;20460;-77
2023/01/22 02:11:14;;;;;;;97.40;35.17;;;;;;;1.58;100.00;100732.63;4840529;29;20041;-77
2023/01/22 02:13:51;;;;;;;93.47;35.42;;;;;;;1.55;100.00;100710.34;4849165;29;20041;-79
2023/01/22 02:16:16;;;;;;;95.22;36.35;;;;;;;1.79;100.00;100725.31;4849514;29;20117;-79
2023/01/22 02:18:42;;;;;;;98.57;36.67;;;;;;;1.80;100.00;100732.16;4847751;29;20568;-79
2023/01/22 02:21:43;;;;;;;103.18;37.80;;;;;;;2.05;100.00;100740.97;4850864;29;20078;-79
2023/01/22 02:24:13;;;;;;;108.47;36.63;;;;;;;1.89;100.00;100740.25;4783398;30;20039;-79
2023/01/22 02:26:39;;;;;;;93.50;35.95;;;;;;;2.00;100.00;100730.88;4836252;29;20042;-77
2023/01/22 02:29:07;;;;;;;109.78;43.03;;;;;;;2.03;100.00;100722.09;4843286;29;20037;-80
2023/01/22 02:31:33;;;;;;;101.30;39.97;;;;;;;2.02;100.00;100723.03;4847233;29;20041;-79
2023/01/22 02:34:04;;;;;;;104.57;42.38;;;;;;;1.78;100.00;100713.28;4844429;29;20030;-78
2023/01/22 02:36:33;;;;;;;104.60;40.78;;;;;;;1.94;100.00;100723.50;4848813;29;20136;-80
2023/01/22 02:38:58;;;;;;;99.75;38.97;;;;;;;1.92;100.00;100720.19;4846499;29;20400;-79
2023/01/22 02:41:25;;;;;;;99.38;39.53;;;;;;;1.74;100.00;100716.97;4842572;29;20034;-79
2023/01/22 02:43:52;;;;;;;97.78;37.78;;;;;;;1.87;100.00;100711.88;4848999;29;20069;-78
2023/01/22 02:46:17;;;;;;;97.07;36.83;;;;;;;1.87;100.00;100717.06;4845352;29;20063;-80
2023/01/22 02:48:43;;;;;;;98.43;38.20;;;;;;;1.64;100.00;100710.72;4843039;29;20052;-80
2023/01/22 02:51:09;;;;;;;104.60;38.65;;;;;;;1.67;100.00;100702.75;4848884;29;20044;-79
2023/01/22 02:53:35;;;;;;;101.95;38.70;;;;;;;1.62;100.00;100722.94;4854993;29;20120;-78
2023/01/22 02:56:07;;;;;;;87.03;35.22;;;;;;;1.67;100.00;100729.50;4849222;29;20456;-78
2023/01/22 02:58:35;;;;;;;99.68;36.88;;;;;;;1.57;100.00;100730.97;4846238;29;20034;-78
2023/01/22 03:01:19;;;;;;;92.80;35.40;;;;;;;1.67;100.00;100726.06;4849491;29;20063;-79
2023/01/22 03:03:56;;;;;;;94.38;36.13;;;;;;;1.63;100.00;100728.00;4851281;29;20116;-79
2023/01/22 03:06:24;;;;;;;96.60;35.58;;;;;;;1.78;100.00;100736.59;4848292;29;20041;-78
2023/01/22 03:08:55;;;;;;;91.82;35.83;;;;;;;1.89;100.00;100732.47;4828078;29;20076;-78
2023/01/22 03:11:22;;;;;;;101.53;37.63;;;;;;;1.94;100.00;100731.28;4833753;29;20049;-80
2023/01/22 03:22:02;;;;;;;77.38;29.80;;;;;;;1.66;100.00;100720.03;4847852;29;20061;-79
2023/01/22 03:24:27;;;;;;;88.15;32.65;;;;;;;1.85;100.00;100724.91;4846366;29;20060;-78
2023/01/22 03:26:53;;;;;;;87.28;31.80;;;;;;;2.03;100.00;100721.25;4844428;29;22328;-78
2023/01/22 03:29:18;;;;;;;104.05;36.72;;;;;;;1.89;100.00;100715.19;4846997;29;20366;-78
2023/01/22 03:31:47;;;;;;;92.38;36.42;;;;;;;1.93;100.00;100716.66;4848264;29;20029;-80
2023/01/22 03:34:19;;;;;;;82.97;35.40;;;;;;;2.01;100.00;100723.97;4844881;29;20457;-78
2023/01/22 03:36:46;;;;;;;92.53;36.65;;;;;;;1.91;100.00;100712.50;4844741;29;20036;-77
2023/01/22 03:39:12;;;;;;;94.18;35.90;;;;;;;1.93;100.00;100718.41;4843411;29;22180;-78
2023/01/22 03:41:38;;;;;;;88.18;33.65;;;;;;;1.77;100.00;100710.78;4849411;29;20378;-78
2023/01/22 03:44:10;;;;;;;93.35;35.40;;;;;;;1.76;100.00;100701.34;4849926;29;20037;-78
2023/01/22 03:46:38;;;;;;;86.47;35.67;;;;;;;1.72;100.00;100708.47;4841691;29;20026;-77
2023/01/22 03:49:08;;;;;;;84.28;34.40;;;;;;;1.66;100.00;100720.03;4843482;29;20038;-78
2023/01/22 03:51:33;;;;;;;98.70;36.28;;;;;;;1.66;100.00;100694.16;4840261;29;20422;-77
2023/01/22 03:54:00;;;;;;;96.47;34.97;;;;;;;1.68;100.00;100683.72;4848392;29;20041;-78
2023/01/22 03:56:26;;;;;;;94.70;36.03;;;;;;;1.73;100.00;100693.78;4841514;29;20053;-78
2023/01/22 03:58:52;;;;;;;84.47;33.95;;;;;;;1.56;100.00;100701.66;4827671;29;20037;-77
2023/01/22 04:01:20;;;;;;;84.10;33.58;;;;;;;1.79;100.00;100703.75;4849088;29;20041;-77
2023/01/22 04:03:48;;;;;;;85.55;35.10;;;;;;;1.65;100.00;100717.56;4848871;29;20081;-78
2023/01/22 04:06:14;;;;;;;83.82;37.55;;;;;;;1.56;100.00;100693.88;4848652;29;20041;-78
2023/01/22 04:08:42;;;;;;;81.35;33.53;;;;;;;1.56;100.00;100704.25;4843708;29;20041;-76
2023/01/22 04:11:09;;;;;;;83.90;34.40;;;;;;;1.63;100.00;100702.09;4829183;29;20042;-77
2023/01/22 04:13:37;;;;;;;86.03;34.35;;;;;;;1.67;100.00;100708.78;4845265;29;20030;-77
2023/01/22 04:16:03;;;;;;;94.40;34.58;;;;;;;1.53;100.00;100704.44;4851595;29;20037;-77
2023/01/22 04:18:28;;;;;;;91.63;33.35;;;;;;;1.65;100.00;100702.03;4850332;29;20077;-76
2023/01/22 04:20:54;;;;;;;89.45;35.75;;;;;;;1.63;100.00;100703.88;4850521;29;20433;-79
2023/01/22 04:23:20;;;;;;;88.47;34.10;;;;;;;1.65;100.00;100689.09;4827375;29;20041;-79
2023/01/22 04:25:47;;;;;;;83.35;33.55;;;;;;;1.60;100.00;100684.19;4829703;29;20056;-78
2023/01/22 04:28:16;;;;;;;79.50;31.58;;;;;;;1.51;100.00;100685.59;4851192;29;20621;-78
2023/01/22 04:30:45;;;;;;;83.68;32.15;;;;;;;1.48;100.00;100682.38;4848169;29;20030;-76
2023/01/22 04:33:11;;;;;;;75.15;31.42;;;;;;;1.50;100.00;100683.91;4852825;29;20026;-77
2023/01/22 04:35:38;;;;;;;77.13;31.27;;;;;;;1.43;100.00;100682.66;4847812;29;20469;-78
2023/01/22 04:38:05;;;;;;;83.65;33.10;;;;;;;1.44;100.00;100676.53;4833761;29;20112;-79
2023/01/22 04:40:32;;;;;;;72.88;30.13;;;;;;;1.43;100.00;100685.25;4852315;29;20108;-77
2023/01/22 04:43:03;;;;;;;80.97;32.20;;;;;;;1.44;100.00;100668.78;4856459;29;20389;-78
2023/01/22 04:45:29;;;;;;;78.90;30.17;;;;;;;1.48;100.00;100672.03;4845662;29;20034;-77
2023/01/22 04:47:55;;;;;;;78.65;30.45;;;;;;;1.49;100.00;100671.09;4850277;29;20037;-79
2023/01/22 04:50:26;;;;;;;70.20;28.55;;;;;;;1.47;100.00;100673.75;4843289;29;20389;-77
2023/01/22 04:52:53;;;;;;;71.50;28.85;;;;;;;1.47;100.00;100678.09;4855437;29;20026;-79
2023/01/22 04:55:19;;;;;;;74.97;30.45;;;;;;;1.56;100.00;100677.53;4852425;29;20052;-79
2023/01/22 04:57:45;;;;;;;78.88;32.13;;;;;;;1.48;100.00;100688.38;4847058;29;20443;-78
2023/01/22 05:00:13;;;;;;;75.38;29.08;;;;;;;1.49;100.00;100677.09;4850392;29;20117;-77
2023/01/22 05:02:38;;;;;;;75.97;30.27;;;;;;;1.47;100.00;100683.28;4833828;29;20038;-77
2023/01/22 05:05:05;;;;;;;63.72;30.23;;;;;;;1.46;100.00;100682.44;4847666;29;20029;-77
2023/01/22 05:07:31;;;;;;;78.70;31.38;;;;;;;1.56;100.00;100667.19;4831254;29;20041;-78
2023/01/22 05:09:57;;;;;;;80.93;31.23;;;;;;;1.60;100.00;100663.47;4831581;29;20034;-78
2023/01/22 05:12:23;;;;;;;71.95;29.40;;;;;;;1.60;100.00;100663.47;4847721;29;20025;-78
2023/01/22 05:14:49;;;;;;;76.85;30.27;;;;;;;1.55;100.00;100666.34;4849865;29;20037;-78
2023/01/22 05:17:14;;;;;;;74.35;30.33;;;;;;;1.40;100.00;100667.31;4832973;29;20509;-77
2023/01/22 05:19:40;;;;;;;73.60;30.40;;;;;;;1.33;100.00;100669.44;4848603;29;20548;-79
2023/01/22 05:22:06;;;;;;;77.47;31.77;;;;;;;1.33;100.00;100676.38;4846425;29;20030;-78
2023/01/22 05:24:31;;;;;;;77.63;31.00;;;;;;;1.18;100.00;100673.81;4845032;29;20038;-77
2023/01/22 05:26:59;;;;;;;66.70;29.48;;;;;;;1.22;100.00;100677.88;4835194;29;20061;-77
2023/01/22 05:29:25;;;;;;;66.85;30.30;;;;;;;1.40;100.00;100685.44;4848948;29;20076;-77
2023/01/22 05:31:56;;;;;;;88.50;33.17;;;;;;;1.34;100.00;100696.13;4848647;29;20030;-77
2023/01/22 05:34:22;;;;;;;73.65;30.10;;;;;;;1.31;100.00;100685.97;4849152;29;20442;-78
2023/01/22 05:36:48;;;;;;;85.10;34.63;;;;;;;1.50;100.00;100689.09;4844502;29;20038;-77
2023/01/22 05:39:16;;;;;;;77.53;31.80;;;;;;;1.60;100.00;100686.78;4849739;29;20470;-78
2023/01/22 05:41:43;;;;;;;76.15;29.40;;;;;;;1.55;100.00;100681.88;4853924;29;20042;-78
2023/01/22 05:44:10;;;;;;;69.47;29.48;;;;;;;1.60;100.00;100678.19;4842762;29;20048;-79
2023/01/22 05:46:36;;;;;;;71.88;29.88;;;;;;;1.55;100.00;100671.53;4847498;29;20366;-79
2023/01/22 05:49:02;;;;;;;72.43;29.40;;;;;;;1.62;100.00;100684.91;4844672;29;20052;-77
2023/01/22 05:51:28;;;;;;;68.45;29.40;;;;;;;1.69;100.00;100688.81;4846960;29;20069;-77
2023/01/22 05:53:53;;;;;;;67.75;28.48;;;;;;;1.60;100.00;100678.19;4833930;29;20548;-77
2023/01/22 05:56:19;;;;;;;68.90;28.75;;;;;;;1.65;100.00;100676.13;4855343;29;20069;-78
2023/01/22 05:58:45;;;;;;;64.55;27.77;;;;;;;1.61;100.00;100670.31;4854022;29;20030;-77
2023/01/22 06:01:11;;;;;;;69.43;29.67;;;;;;;1.55;100.00;100657.75;4849602;29;20063;-77
2023/01/22 06:03:36;;;;;;;69.85;28.67;;;;;;;1.44;100.00;100642.91;4846487;29;20037;-78
2023/01/22 06:06:06;;;;;;;71.40;28.30;;;;;;;1.49;100.00;100650.38;4847953;29;20033;-78
2023/01/22 06:08:32;;;;;;;60.75;27.23;;;;;;;1.46;100.00;100661.75;4844044;29;20038;-79
2023/01/22 06:11:06;;;;;;;57.15;25.77;;;;;;;1.52;100.00;100665.72;4838468;29;20052;-78
2023/01/22 06:13:33;;;;;;;58.70;25.80;;;;;;;1.61;100.00;100664.31;4847456;29;20817;-80
2023/01/22 06:15:59;;;;;;;61.42;26.80;;;;;;;1.52;100.00;100674.31;4856285;29;20116;-78
2023/01/22 06:18:26;;;;;;;59.53;25.50;;;;;;;1.70;100.00;100671.50;4851874;29;20042;-79
2023/01/22 06:20:52;;;;;;;67.20;26.25;;;;;;;1.74;100.00;100675.56;4845976;29;20474;-80
2023/01/22 06:23:18;;;;;;;61.17;26.05;;;;;;;1.69;100.00;100667.25;4850499;29;20034;-79
2023/01/22 06:25:43;;;;;;;60.55;26.20;;;;;;;1.74;100.00;100657.41;4842145;29;20057;-77
2023/01/22 06:28:09;;;;;;;59.88;24.88;;;;;;;1.84;100.00;100676.63;4848922;29;20048;-77
2023/01/22 06:30:36;;;;;;;66.75;26.42;;;;;;;1.76;100.00;100678.06;4850695;29;20033;-78
2023/01/22 06:33:03;;;;;;;53.55;22.95;;;;;;;1.83;100.00;100681.91;4845250;29;20109;-78
2023/01/22 06:35:28;;;;;;;64.32;25.98;;;;;;;1.85;100.00;100680.88;4850005;29;20041;-78
2023/01/22 06:37:54;;;;;;;55.95;24.70;;;;;;;1.75;100.00;100677.22;4844325;29;20215;-80
2023/01/22 06:40:20;;;;;;;59.42;25.92;;;;;;;1.89;100.00;100684.13;4847742;29;20034;-80
2023/01/22 06:42:45;;;;;;;59.75;25.42;;;;;;;1.81;100.00;100676.84;4852175;29;20048;-80
2023/01/22 06:45:11;;;;;;;56.22;24.75;;;;;;;1.81;100.00;100671.66;4852524;29;20483;-80
2023/01/22 06:47:37;;;;;;;60.08;25.75;;;;;;;1.72;100.00;100667.06;4846790;29;20081;-79
2023/01/22 06:50:03;;;;;;;58.42;26.10;;;;;;;1.80;100.00;100666.56;4848785;29;20080;-78
2023/01/22 06:52:29;;;;;;;56.22;24.50;;;;;;;1.71;100.00;100645.53;4848607;29;20057;-79
2023/01/22 06:54:54;;;;;;;52.40;22.88;;;;;;;1.78;100.00;100664.09;4848299;29;20026;-79
2023/01/22 06:57:20;;;;;;;56.05;23.60;;;;;;;1.86;100.00;100663.56;4851404;29;20120;-80
2023/01/22 06:59:45;;;;;;;55.17;26.05;;;;;;;1.88;100.00;100666.09;4843989;29;20042;-79
2023/01/22 07:02:17;;;;;;;60.00;25.08;;;;;;;1.92;100.00;100670.97;4847596;29;20499;-79
2023/01/22 07:04:43;;;;;;;62.90;25.85;;;;;;;1.96;100.00;100674.19;4846248;29;20519;-80
2023/01/22 07:07:09;;;;;;;59.22;26.98;;;;;;;1.94;100.00;100687.25;4847265;29;20041;-80
2023/01/22 07:09:36;;;;;;;59.65;25.92;;;;;;;1.97;100.00;100688.81;4845277;29;20029;-78
2023/01/22 07:12:02;;;;;;;62.08;27.80;;;;;;;2.03;100.00;100693.59;4847216;29;20036;-78
2023/01/22 07:14:29;;;;;;;58.00;26.52;;;;;;;1.94;100.00;100689.00;4846349;29;20110;-81
2023/01/22 07:16:58;;;;;;;60.97;25.65;;;;;;;1.97;100.00;100683.66;4845606;29;20042;-79
2023/01/22 07:19:23;;;;;;;60.67;26.90;;;;;;;1.96;100.00;100694.91;4834331;29;20029;-78
2023/01/22 07:21:49;;;;;;;59.67;25.25;;;;;;;1.93;100.00;100689.91;4850111;29;20101;-80
2023/01/22 07:24:15;;;;;;;52.80;23.95;;;;;;;2.14;100.00;100696.31;4845952;29;20041;-80
2023/01/22 07:26:42;;;;;;;52.28;24.58;;;;;;;2.20;100.00;100696.88;4847581;29;20034;-80
2023/01/22 07:29:08;;;;;;;49.75;24.42;;;;;;;2.19;100.00;100708.16;4843503;29;20022;-78
2023/01/22 07:31:34;;;;;;;57.47;26.15;;;;;;;2.22;100.00;100707.97;4849083;29;20041;-79
2023/01/22 07:34:00;;;;;;;62.28;25.77;;;;;;;2.26;100.00;100710.28;4848096;29;20036;-78
2023/01/22 07:36:26;;;;;;;57.78;27.10;;;;;;;2.30;100.00;100708.28;4843415;29;20472;-77
2023/01/22 07:38:52;;;;;;;55.08;24.48;;;;;;;2.30;100.00;100703.09;4850043;29;20053;-78
2023/01/22 07:41:20;;;;;;;49.22;23.83;;;;;;;2.28;100.00;100699.78;4845014;29;20060;-79
2023/01/22 07:43:48;;;;;;;58.35;24.00;;;;;;;2.38;100.00;100697.44;4844680;29;20465;-78
2023/01/22 07:46:14;;;;;;;50.25;23.65;;;;;;;2.37;100.00;100696.63;4847141;29;20064;-78
2023/01/22 07:48:40;;;;;;;55.42;24.77;;;;;;;2.34;100.00;100694.19;4852895;29;20449;-77
2023/01/22 07:51:06;;;;;;;53.55;23.60;;;;;;;2.50;100.00;100698.38;4849045;29;20053;-79
2023/01/22 07:53:33;;;;;;;56.22;24.38;;;;;;;2.58;100.00;100701.31;4848123;29;20065;-77
2023/01/22 07:56:00;;;;;;;50.30;22.60;;;;;;;2.41;100.00;100703.25;4842563;29;20054;-76
2023/01/22 07:58:26;;;;;;;52.83;21.75;;;;;;;2.64;100.00;100698.31;4845258;29;20417;-77
2023/01/22 08:00:52;;;;;;;48.90;22.58;;;;;;;2.80;100.00;100713.66;4845082;29;20041;-75
2023/01/22 08:03:17;;;;;;;49.70;22.55;;;;;;;2.80;100.00;100710.25;4848751;29;20042;-77
2023/01/22 08:05:43;;;;;;;50.38;22.92;;;;;;;2.84;100.00;100709.13;4834995;29;20101;-76
2023/01/22 08:08:26;;;;;;;48.15;22.63;;;;;;;3.07;100.00;100691.16;4852186;29;20470;-77
2023/01/22 08:10:56;;;;;;;50.28;20.42;;;;;;;2.93;100.00;100679.94;4849250;29;20060;-77
2023/01/22 08:13:22;;;;;;;50.33;20.70;;;;;;;3.22;100.00;100682.34;4850003;29;20040;-78
2023/01/22 08:15:47;;;;;;;44.60;20.90;;;;;;;3.31;100.00;100698.19;4841304;29;20053;-78
2023/01/22 08:18:13;;;;;;;39.92;20.25;;;;;;;3.36;100.00;100701.31;4845106;29;20034;-79
2023/01/22 08:20:39;;;;;;;46.88;21.48;;;;;;;3.60;100.00;100705.75;4846932;29;20068;-79
2023/01/22 08:23:04;;;;;;;39.90;20.00;;;;;;;3.34;100.00;100706.59;4841953;29;20038;-78
2023/01/22 08:25:30;;;;;;;37.97;18.35;;;;;;;3.69;100.00;100695.53;4842510;29;20094;-79
2023/01/22 08:27:55;;;;;;;41.15;19.42;;;;;;;3.86;100.00;100704.72;4845606;29;20041;-78
2023/01/22 08:30:21;;;;;;;34.80;18.05;;;;;;;3.73;100.00;100703.91;4837383;29;22487;-77
2023/01/22 08:32:49;;;;;;;39.95;20.33;;;;;;;3.88;100.00;100715.00;4828307;29;20033;-77
2023/01/22 08:35:15;;;;;;;42.85;20.27;;;;;;;4.12;100.00;100707.19;4842092;29;20041;-78
2023/01/22 08:37:42;;;;;;;36.33;17.30;;;;;;;4.11;100.00;100697.75;4843236;29;20067;-80
2023/01/22 08:40:09;;;;;;;40.80;18.95;;;;;;;4.02;100.00;100703.63;4851328;29;20030;-79
2023/01/22 08:42:36;;;;;;;36.45;18.42;;;;;;;3.99;100.00;100709.03;4852166;29;20500;-81
2023/01/22 08:45:01;;;;;;;36.45;18.55;;;;;;;4.16;100.00;100697.41;4847797;29;20134;-83
2023/01/22 08:47:27;;;;;;;36.08;17.95;;;;;;;4.10;100.00;100700.47;4853107;29;20065;-81
2023/01/22 08:49:53;;;;;;;35.10;17.15;;;;;;;4.15;100.00;100698.34;4846965;29;20065;-81
2023/01/22 08:52:19;;;;;;;36.15;16.85;;;;;;;4.13;100.00;100702.84;4849122;29;20078;-79
2023/01/22 08:54:44;;;;;;;35.60;18.00;;;;;;;4.20;100.00;100696.25;4848651;29;20029;-79
2023/01/22 08:57:10;;;;;;;35.35;18.70;;;;;;;4.26;100.00;100694.97;4844815;29;20401;-79
2023/01/22 08:59:36;;;;;;;38.35;17.63;;;;;;;4.30;100.00;100696.41;4846152;29;20033;-81
2023/01/22 09:02:02;;;;;;;35.88;18.08;;;;;;;4.49;100.00;100698.50;4846196;29;20125;-80
2023/01/22 09:04:28;;;;;;;32.33;16.38;;;;;;;4.51;100.00;100698.34;4848624;29;20551;-79
2023/01/22 09:06:54;;;;;;;42.92;18.23;;;;;;;4.48;100.00;100683.81;4842419;29;20037;-80
2023/01/22 09:09:19;;;;;;;29.92;16.73;;;;;;;4.67;100.00;100696.28;4843499;29;20038;-80
2023/01/22 09:11:45;;;;;;;38.85;18.25;;;;;;;4.66;100.00;100691.22;4855291;29;20540;-80
2023/01/22 09:14:11;;;;;;;30.42;16.42;;;;;;;4.57;100.00;100677.94;4851629;29;20042;-80
2023/01/22 09:16:38;;;;;;;36.95;16.45;;;;;;;4.81;100.00;100691.81;4848672;29;20047;-80
2023/01/22 09:19:05;;;;;;;33.78;17.05;;;;;;;4.76;100.00;100688.75;4852482;29;20124;-79
2023/01/22 09:21:32;;;;;;;39.85;19.25;;;;;;;4.83;100.00;100689.94;4848990;29;20098;-80
2023/01/22 09:23:59;;;;;;;34.35;16.88;;;;;;;4.95;100.00;100683.81;4849243;29;20044;-80
2023/01/22 09:26:26;;;;;;;36.33;17.52;;;;;;;4.97;100.00;100673.25;4835208;29;20040;-81
2023/01/22 09:28:52;;;;;;;34.05;17.40;;;;;;;5.10;100.00;100687.00;4850868;29;20033;-80
2023/01/22 09:31:17;;;;;;;34.15;18.83;;;;;;;5.32;100.00;100689.72;4847563;29;20059;-79
2023/01/22 09:33:43;;;;;;;38.30;18.08;;;;;;;5.38;100.00;100691.84;4848939;29;20038;-80
2023/01/22 09:36:14;;;;;;;36.22;18.13;;;;;;;5.26;100.00;100702.25;4845730;29;20465;-79
2023/01/22 09:38:40;;;;;;;37.55;18.73;;;;;;;5.24;100.00;100705.94;4849199;29;20041;-80
2023/01/22 09:41:19;;;;;;;35.40;17.60;;;;;;;5.35;100.00;100712.91;4847152;29;20037;-80
2023/01/22 09:43:56;;;;;;;34.55;17.83;;;;;;;5.41;100.00;100715.03;4830413;29;20037;-79
2023/01/22 09:46:26;;;;;;;40.33;17.70;;;;;;;5.39;100.00;100714.34;4833826;29;20612;-79
2023/01/22 09:49:07;;;;;;;30.35;16.20;;;;;;;5.02;100.00;100697.19;4846447;29;20041;-79
2023/01/22 09:51:34;;;;;;;35.38;17.52;;;;;;;5.21;100.00;100698.34;4821087;29;20041;-81
2023/01/22 09:54:03;;;;;;;34.85;17.13;;;;;;;5.03;100.00;100708.41;4849633;29;20030;-79
2023/01/22 09:56:39;;;;;;;33.08;16.27;;;;;;;5.14;100.00;100705.81;4827458;29;20124;-79
2023/01/22 09:59:06;;;;;;;35.33;17.10;;;;;;;5.23;100.00;100702.50;4831665;29;20069;-78
2023/01/22 10:01:33;;;;;;;29.15;15.77;;;;;;;5.52;100.00;100712.44;4844796;29;20536;-79
2023/01/22 10:04:04;;;;;;;30.80;16.35;;;;;;;5.57;100.00;100718.09;4828120;29;20046;-80
2023/01/22 10:06:30;;;;;;;28.83;14.82;;;;;;;5.51;100.00;100710.78;4829805;29;20099;-82
2023/01/22 10:09:17;;;;;;;30.10;17.00;;;;;;;5.67;100.00;100713.00;4843342;29;20034;-82
2023/01/22 10:11:48;;;;;;;34.00;16.20;;;;;;;5.70;100.00;100711.94;4828232;29;20050;-78
2023/01/22 10:14:16;;;;;;;28.77;14.57;;;;;;;5.80;100.00;100707.66;4831699;29;20485;-78
2023/01/22 10:16:46;;;;;;;32.75;15.48;;;;;;;6.00;100.00;100713.88;4826269;29;20070;-81
2023/01/22 10:19:14;;;;;;;33.45;18.13;;;;;;;6.10;100.00;100716.63;4829114;29;20484;-80
2023/01/22 10:21:48;;;;;;;34.63;17.60;;;;;;;6.07;100.00;100706.41;4828671;29;20125;-82
2023/01/22 10:24:14;;;;;;;32.95;16.02;;;;;;;6.26;100.00;100707.53;4829295;29;20038;-81
2023/01/22 10:26:51;;;;;;;30.13;16.88;;;;;;;6.29;100.00;100707.31;4832317;29;20022;-79
2023/01/22 10:29:37;;;;;;;31.23;17.17;;;;;;;6.47;100.00;100711.94;4844445;29;20042;-81
2023/01/22 10:32:27;;;;;;;30.65;17.13;;;;;;;6.60;100.00;100723.03;4846668;29;20030;-80
2023/01/22 10:35:00;;;;;;;29.92;16.48;;;;;;;6.51;100.00;100729.00;4831038;29;20034;-79
2023/01/22 10:37:26;;;;;;;32.20;16.38;;;;;;;6.52;100.00;100728.06;4831730;29;20037;-80
2023/01/22 10:39:57;;;;;;;28.83;16.60;;;;;;;6.39;100.00;100723.84;4829612;29;20132;-78
2023/01/22 10:42:28;;;;;;;29.30;15.82;;;;;;;6.55;100.00;100727.81;4827217;29;20332;-79
2023/01/22 10:45:10;;;;;;;34.92;16.15;;;;;;;6.53;100.00;100725.31;4841346;29;20042;-80
2023/01/22 10:47:36;;;;;;;29.80;16.13;;;;;;;6.14;100.00;100738.03;4848209;29;20030;-80
2023/01/22 10:50:14;;;;;;;38.70;17.63;;;;;;;6.23;100.00;100737.31;4824136;29;20045;-80
2023/01/22 10:52:58;;;;;;;27.50;14.43;;;;;;;6.19;100.00;100738.50;4834652;29;20061;-81
2023/01/22 10:55:24;;;;;;;;;;;;;;;6.18;100.00;100743.84;4842685;29;20046;-81
2023/01/22 10:58:01;;;;;;;30.13;16.92;;;;;;;6.23;100.00;100736.47;4830992;29;19964;-80
2023/01/22 11:00:37;;;;;;;29.95;15.65;;;;;;;6.12;100.00;100737.31;4832692;29;20042;-81
2023/01/22 11:03:28;;;;;;;32.90;15.43;;;;;;;6.08;100.00;100725.50;4835863;29;20037;-81
2023/01/22 11:06:00;;;;;;;30.08;15.20;;;;;;;6.19;100.00;100722.03;4831216;29;20038;-77
2023/01/22 11:08:32;;;;;;;29.15;14.70;;;;;;;6.66;100.00;100727.72;4837535;29;20042;-80
2023/01/22 11:11:06;;;;;;;27.88;15.57;;;;;;;6.86;100.00;100712.19;4832734;29;20057;-80
2023/01/22 11:13:49;;;;;;;33.13;16.23;;;;;;;7.09;100.00;100727.72;4833292;29;20073;-80
2023/01/22 11:16:24;;;;;;;31.00;15.13;;;;;;;6.92;100.00;100724.75;4830930;29;20030;-81
2023/01/22 11:19:00;;;;;;;30.10;14.38;;;;;;;6.60;100.00;100723.03;4833040;29;20042;-81
2023/01/22 11:21:55;;;;;;;31.35;15.43;;;;;;;6.59;100.00;100708.31;4832100;29;20496;-81